X  Bezárás Metar Aviation Weather Data     LHBP Budapest Liszt Ferenc International Airport
Hőmérséklet
0°C Hőmérséklet
-4°C Harmatpont
75% Páratartalom



Szél
3 KM/H
2 MPH
1 M/S
2 KTS



Szélcsend
Észak
Current Conditions

Overcast Overcast
Pressure 1010.92 (hPa) - 29.85 (inHg)
Visibility 6.2 (mile) - 10 (km)
Repülőtér
Airport-code LHBP

Location: Budapest Liszt Ferenc International Airport
Távolság: 14 (km)

Metar:
LHBP 280030Z VRB02KT 9999 OVC015 M00/M04 Q1011 NOSIG

Idő: 28-12-2021 01:30 CET